createdAt,value
2023-01-13T00:00:23.176Z,25.93
2023-01-13T00:00:53.205Z,25.96
2023-01-13T00:01:23.261Z,25.93
2023-01-13T00:01:53.346Z,25.95
2023-01-13T00:02:23.521Z,25.91
2023-01-13T00:02:53.468Z,25.93
2023-01-13T00:03:23.575Z,25.92
2023-01-13T00:03:53.675Z,25.93
2023-01-13T00:04:23.799Z,25.93
2023-01-13T00:04:53.748Z,25.92
2023-01-13T00:05:23.827Z,25.93
2023-01-13T00:05:53.908Z,25.95
2023-01-13T00:06:24.013Z,25.93
2023-01-13T00:06:54.088Z,25.96
2023-01-13T00:07:24.193Z,25.95
2023-01-13T00:07:54.279Z,25.92
2023-01-13T00:08:24.377Z,25.95
2023-01-13T00:08:54.469Z,25.95
2023-01-13T00:09:24.543Z,25.93
2023-01-13T00:09:54.640Z,25.93
2023-01-13T00:10:24.729Z,25.95
2023-01-13T00:10:54.808Z,25.92
2023-01-13T00:11:24.898Z,25.92
2023-01-13T00:11:55.000Z,25.92
2023-01-13T00:12:25.070Z,25.91
2023-01-13T00:12:55.155Z,25.93
2023-01-13T00:13:25.250Z,25.92
2023-01-13T00:13:55.338Z,25.93
2023-01-13T00:14:25.449Z,25.95
2023-01-13T00:14:55.526Z,25.93
2023-01-13T00:15:25.567Z,25.93
2023-01-13T00:15:55.702Z,25.92
2023-01-13T00:16:25.660Z,25.92
2023-01-13T00:16:55.751Z,25.92
2023-01-13T00:17:25.826Z,25.92
2023-01-13T00:17:55.916Z,25.92
2023-01-13T00:18:25.999Z,25.91
2023-01-13T00:18:56.095Z,25.92
2023-01-13T00:19:26.197Z,25.92
2023-01-13T00:19:56.270Z,25.93
2023-01-13T00:20:26.359Z,25.93
2023-01-13T00:20:56.467Z,25.93
2023-01-13T00:21:26.547Z,25.92
2023-01-13T00:21:56.673Z,25.93
2023-01-13T00:22:26.740Z,25.93
2023-01-13T00:22:56.818Z,25.91
2023-01-13T00:23:26.913Z,25.93
2023-01-13T00:23:57.012Z,25.95
2023-01-13T00:24:27.098Z,25.92
2023-01-13T00:24:57.171Z,25.91
2023-01-13T00:25:27.259Z,25.93
2023-01-13T00:25:57.351Z,25.93
2023-01-13T00:26:27.430Z,25.92
2023-01-13T00:26:57.538Z,25.92
2023-01-13T00:27:27.616Z,25.89
2023-01-13T00:27:57.692Z,25.91
2023-01-13T00:28:27.779Z,25.93
2023-01-13T00:28:58.018Z,25.92
2023-01-13T00:29:27.975Z,25.92
2023-01-13T00:29:58.087Z,25.93
2023-01-13T00:30:28.163Z,25.91
2023-01-13T00:30:58.335Z,25.92
2023-01-13T00:31:28.378Z,25.92
2023-01-13T00:31:58.338Z,25.92
2023-01-13T00:32:28.416Z,25.92
2023-01-13T00:32:58.495Z,25.91
2023-01-13T00:33:28.584Z,25.91
2023-01-13T00:33:58.677Z,25.92
2023-01-13T00:34:28.770Z,25.91
2023-01-13T00:34:58.890Z,25.91
2023-01-13T00:35:28.946Z,25.92
2023-01-13T00:35:59.032Z,25.91
2023-01-13T00:36:29.135Z,25.91
2023-01-13T00:36:59.116Z,25.91
2023-01-13T00:37:29.216Z,25.91
2023-01-13T00:37:59.302Z,25.91
2023-01-13T00:38:29.369Z,25.91
2023-01-13T00:38:59.465Z,25.91
2023-01-13T00:39:29.543Z,25.88
2023-01-13T00:39:59.626Z,25.92
2023-01-13T00:40:29.713Z,25.91
2023-01-13T00:40:59.798Z,25.92
2023-01-13T00:41:29.892Z,25.92
2023-01-13T00:41:59.987Z,25.92
2023-01-13T00:42:30.068Z,25.93
2023-01-13T00:43:00.159Z,25.89
2023-01-13T00:43:30.236Z,25.89
2023-01-13T00:44:00.331Z,25.89
2023-01-13T00:44:30.416Z,25.89
2023-01-13T00:45:00.513Z,25.92
2023-01-13T00:45:30.589Z,25.91
2023-01-13T00:46:00.700Z,25.88
2023-01-13T00:46:30.846Z,25.91
2023-01-13T00:47:00.805Z,25.91
2023-01-13T00:47:30.882Z,25.89
2023-01-13T00:48:00.964Z,25.91
2023-01-13T00:48:31.073Z,25.89
2023-01-13T00:49:01.167Z,25.91
2023-01-13T00:49:31.248Z,25.92
2023-01-13T00:50:01.466Z,25.91
2023-01-13T00:50:31.402Z,25.89
2023-01-13T00:51:01.471Z,25.89
2023-01-13T00:51:31.539Z,25.91
2023-01-13T00:52:01.595Z,25.91
2023-01-13T00:52:31.634Z,25.91
2023-01-13T00:53:01.691Z,25.91
2023-01-13T00:53:31.731Z,25.91
2023-01-13T00:54:01.786Z,25.89
2023-01-13T00:54:31.832Z,25.92
2023-01-13T00:55:01.881Z,25.89
2023-01-13T00:55:31.928Z,25.91
2023-01-13T00:56:02.013Z,25.88
2023-01-13T00:56:40.152Z,25.89
2023-01-13T00:57:02.063Z,25.89
2023-01-13T00:57:32.113Z,25.91
2023-01-13T00:58:02.162Z,25.89
2023-01-13T00:58:32.210Z,25.89
2023-01-13T00:59:02.259Z,25.86
2023-01-13T00:59:32.307Z,25.86
2023-01-13T01:00:02.349Z,25.91
2023-01-13T01:00:32.535Z,25.88
2023-01-13T01:01:02.640Z,25.86
2023-01-13T01:01:32.774Z,25.88
2023-01-13T01:02:02.728Z,25.89
2023-01-13T01:02:32.652Z,25.88
2023-01-13T01:03:02.732Z,25.92
2023-01-13T01:03:32.814Z,25.89
2023-01-13T01:04:02.890Z,25.88
2023-01-13T01:04:32.986Z,25.88
2023-01-13T01:05:03.079Z,25.88
2023-01-13T01:05:33.186Z,25.88
2023-01-13T01:06:03.251Z,25.89
2023-01-13T01:06:33.261Z,25.88
2023-01-13T01:07:03.346Z,25.89
2023-01-13T01:07:33.437Z,25.91
2023-01-13T01:08:03.521Z,25.89
2023-01-13T01:08:33.631Z,25.88
2023-01-13T01:09:03.706Z,25.88
2023-01-13T01:09:33.783Z,25.88
2023-01-13T01:10:03.887Z,25.89
2023-01-13T01:10:33.965Z,25.89
2023-01-13T01:11:04.061Z,25.86
2023-01-13T01:11:34.154Z,25.88
2023-01-13T01:12:04.220Z,25.89
2023-01-13T01:12:34.308Z,25.88
2023-01-13T01:13:04.411Z,25.88
2023-01-13T01:13:34.478Z,25.89
2023-01-13T01:14:04.555Z,25.88
2023-01-13T01:14:34.637Z,25.88
2023-01-13T01:15:04.739Z,25.88
2023-01-13T01:15:34.810Z,25.88
2023-01-13T01:16:04.932Z,25.86
2023-01-13T01:16:35.078Z,25.89
2023-01-13T01:17:05.056Z,25.88
2023-01-13T01:17:35.160Z,25.88
2023-01-13T01:18:05.232Z,25.88
2023-01-13T01:18:35.327Z,25.86
2023-01-13T01:19:05.410Z,25.88
2023-01-13T01:19:35.497Z,25.86
2023-01-13T01:20:05.601Z,25.86
2023-01-13T01:20:35.697Z,25.88
2023-01-13T01:21:05.752Z,25.88
2023-01-13T01:21:35.877Z,25.89
2023-01-13T01:22:05.967Z,25.86
2023-01-13T01:22:36.049Z,25.89
2023-01-13T01:23:06.157Z,25.88
2023-01-13T01:23:36.230Z,25.89
2023-01-13T01:24:06.309Z,25.88
2023-01-13T01:24:36.407Z,25.86
2023-01-13T01:25:06.484Z,25.88
2023-01-13T01:25:36.598Z,25.88
2023-01-13T01:26:06.696Z,25.86
2023-01-13T01:26:36.759Z,25.86
2023-01-13T01:27:06.851Z,25.86
2023-01-13T01:27:36.966Z,25.86
2023-01-13T01:28:07.052Z,25.88
2023-01-13T01:28:37.148Z,25.86
2023-01-13T01:29:07.228Z,25.89
2023-01-13T01:29:37.313Z,25.86
2023-01-13T01:30:07.398Z,25.86
2023-01-13T01:30:37.504Z,25.88
2023-01-13T01:31:07.711Z,25.88
2023-01-13T01:31:37.703Z,25.89
2023-01-13T01:32:07.665Z,25.86
2023-01-13T01:32:37.787Z,25.86
2023-01-13T01:33:07.746Z,25.89
2023-01-13T01:33:37.825Z,25.88
2023-01-13T01:34:07.929Z,25.88
2023-01-13T01:34:38.007Z,25.88
2023-01-13T01:35:08.111Z,25.88
2023-01-13T01:35:38.191Z,25.88
2023-01-13T01:36:08.291Z,25.89
2023-01-13T01:36:38.356Z,25.88
2023-01-13T01:37:08.453Z,25.89
2023-01-13T01:37:38.539Z,25.89
2023-01-13T01:38:08.618Z,25.89
2023-01-13T01:38:38.735Z,25.86
2023-01-13T01:39:08.830Z,25.86
2023-01-13T01:39:38.934Z,25.89
2023-01-13T01:40:09.010Z,25.86
2023-01-13T01:40:39.095Z,25.86
2023-01-13T01:41:09.190Z,25.88
2023-01-13T01:41:39.265Z,25.88
2023-01-13T01:42:09.357Z,25.88
2023-01-13T01:42:39.469Z,25.88
2023-01-13T01:43:09.557Z,25.89
2023-01-13T01:43:39.656Z,25.86
2023-01-13T01:44:09.775Z,25.85
2023-01-13T01:44:39.840Z,25.88
2023-01-13T01:45:09.922Z,25.88
2023-01-13T01:45:40.024Z,25.88
2023-01-13T01:46:10.118Z,25.86
2023-01-13T01:46:40.252Z,25.88
2023-01-13T01:47:10.215Z,25.86
2023-01-13T01:47:40.305Z,25.89
2023-01-13T01:48:10.388Z,25.88
2023-01-13T01:48:40.482Z,25.85
2023-01-13T01:49:10.568Z,25.86
2023-01-13T01:49:40.645Z,25.85
2023-01-13T01:50:10.735Z,25.85
2023-01-13T01:50:40.836Z,25.88
2023-01-13T01:51:10.942Z,25.86
2023-01-13T01:51:41.015Z,25.85
2023-01-13T01:52:11.047Z,25.86
2023-01-13T01:52:41.084Z,25.85
2023-01-13T01:53:11.148Z,25.86
2023-01-13T01:53:41.188Z,25.88
2023-01-13T01:54:11.267Z,25.86
2023-01-13T01:54:41.305Z,25.89
2023-01-13T01:55:11.358Z,25.86
2023-01-13T01:55:41.482Z,25.85
2023-01-13T01:56:11.533Z,25.85
2023-01-13T01:56:41.632Z,25.88
2023-01-13T01:57:11.677Z,25.88
2023-01-13T01:57:41.717Z,25.85
2023-01-13T01:58:11.777Z,25.85
2023-01-13T01:58:41.827Z,25.85
2023-01-13T01:59:11.900Z,25.86
2023-01-13T01:59:41.935Z,25.85
2023-01-13T02:00:11.991Z,25.85
2023-01-13T02:00:42.111Z,25.85
2023-01-13T02:01:12.128Z,25.84
2023-01-13T02:01:42.243Z,25.85
2023-01-13T02:02:12.321Z,25.86
2023-01-13T02:02:42.197Z,25.85
2023-01-13T02:03:12.159Z,25.86
2023-01-13T02:03:42.239Z,25.86
2023-01-13T02:04:12.341Z,25.86
2023-01-13T02:04:42.412Z,25.85
2023-01-13T02:05:12.510Z,25.84
2023-01-13T02:05:42.589Z,25.84
2023-01-13T02:06:12.667Z,25.86
2023-01-13T02:06:42.758Z,25.85
2023-01-13T02:07:12.861Z,25.86
2023-01-13T02:07:42.918Z,25.85
2023-01-13T02:08:13.015Z,25.86
2023-01-13T02:08:43.094Z,25.85
2023-01-13T02:09:13.175Z,25.86
2023-01-13T02:09:43.261Z,25.84
2023-01-13T02:10:13.347Z,25.88
2023-01-13T02:10:43.434Z,25.86
2023-01-13T02:11:13.523Z,25.84
2023-01-13T02:11:43.612Z,25.85
2023-01-13T02:12:13.698Z,25.84
2023-01-13T02:12:43.789Z,25.86
2023-01-13T02:13:13.877Z,25.88
2023-01-13T02:13:43.955Z,25.85
2023-01-13T02:14:14.032Z,25.86
2023-01-13T02:14:44.123Z,25.86
2023-01-13T02:15:14.211Z,25.86
2023-01-13T02:15:44.299Z,25.86
2023-01-13T02:16:14.436Z,25.86
2023-01-13T02:16:44.494Z,25.84
2023-01-13T02:17:14.459Z,25.85
2023-01-13T02:17:44.548Z,25.86
2023-01-13T02:18:14.630Z,25.84
2023-01-13T02:18:44.722Z,25.84
2023-01-13T02:19:14.802Z,25.85
2023-01-13T02:19:44.889Z,25.86
2023-01-13T02:20:14.988Z,25.84
2023-01-13T02:20:45.073Z,25.85
2023-01-13T02:21:15.157Z,25.84
2023-01-13T02:21:45.246Z,25.85
2023-01-13T02:22:15.315Z,25.85
2023-01-13T02:22:45.430Z,25.84
2023-01-13T02:23:15.487Z,25.84
2023-01-13T02:23:45.566Z,25.85
2023-01-13T02:24:15.655Z,25.86
2023-01-13T02:24:45.740Z,25.86
2023-01-13T02:25:15.998Z,25.85
2023-01-13T02:25:45.929Z,25.86
2023-01-13T02:26:16.039Z,25.84
2023-01-13T02:26:46.069Z,25.85
2023-01-13T02:27:16.128Z,25.85
2023-01-13T02:27:46.146Z,25.86
2023-01-13T02:28:16.153Z,25.84
2023-01-13T02:28:46.224Z,25.84
2023-01-13T02:29:16.315Z,25.85
2023-01-13T02:29:46.401Z,25.86
2023-01-13T02:30:16.500Z,25.84
2023-01-13T02:30:46.589Z,25.84
2023-01-13T02:31:16.698Z,25.82
2023-01-13T02:31:46.835Z,25.85
2023-01-13T02:32:16.819Z,25.84
2023-01-13T02:32:46.902Z,25.82
2023-01-13T02:33:16.988Z,25.84
2023-01-13T02:33:47.076Z,25.82
2023-01-13T02:34:17.156Z,25.82
2023-01-13T02:34:47.235Z,25.84
2023-01-13T02:35:17.323Z,25.82
2023-01-13T02:35:47.399Z,25.84
2023-01-13T02:36:17.486Z,25.84
2023-01-13T02:36:47.571Z,25.81
2023-01-13T02:37:17.698Z,25.81
2023-01-13T02:37:47.826Z,25.81
2023-01-13T02:38:17.887Z,25.82
2023-01-13T02:38:47.965Z,25.81
2023-01-13T02:39:18.056Z,25.82
2023-01-13T02:39:48.134Z,25.82
2023-01-13T02:40:18.216Z,25.81
2023-01-13T02:40:48.306Z,25.82
2023-01-13T02:41:18.416Z,25.81
2023-01-13T02:41:48.524Z,25.81
2023-01-13T02:42:18.618Z,25.81
2023-01-13T02:42:48.698Z,25.84
2023-01-13T02:43:18.780Z,25.81
2023-01-13T02:43:48.865Z,25.81
2023-01-13T02:44:18.944Z,25.84
2023-01-13T02:44:49.022Z,25.81
2023-01-13T02:45:19.127Z,25.82
2023-01-13T02:45:49.314Z,25.82
2023-01-13T02:46:19.259Z,25.79
2023-01-13T02:46:49.345Z,25.82
2023-01-13T02:47:19.419Z,25.82
2023-01-13T02:47:49.507Z,25.81
2023-01-13T02:48:19.597Z,25.81
2023-01-13T02:48:49.688Z,25.79
2023-01-13T02:49:19.771Z,25.81
2023-01-13T02:49:49.856Z,25.81
2023-01-13T02:50:19.932Z,25.78
2023-01-13T02:50:50.028Z,25.81
2023-01-13T02:51:20.097Z,25.81
2023-01-13T02:51:50.145Z,25.81
2023-01-13T02:52:20.198Z,25.81
2023-01-13T02:52:50.272Z,25.81
2023-01-13T02:53:20.291Z,25.81
2023-01-13T02:53:50.341Z,25.81
2023-01-13T02:54:20.393Z,25.81
2023-01-13T02:54:50.442Z,25.82
2023-01-13T02:55:20.477Z,25.81
2023-01-13T02:55:50.536Z,25.81
2023-01-13T02:56:20.589Z,25.78
2023-01-13T02:56:50.632Z,25.82
2023-01-13T02:57:20.703Z,25.81
2023-01-13T02:57:50.764Z,25.79
2023-01-13T02:58:20.813Z,25.79
2023-01-13T02:58:50.863Z,25.79
2023-01-13T02:59:20.892Z,25.82
2023-01-13T02:59:50.903Z,25.82
2023-01-13T03:00:20.888Z,25.78
2023-01-13T03:00:50.946Z,25.78
2023-01-13T03:01:21.041Z,25.81
2023-01-13T03:01:51.163Z,25.82
2023-01-13T03:02:21.330Z,25.79
2023-01-13T03:02:51.182Z,25.81
2023-01-13T03:03:21.197Z,25.78
2023-01-13T03:03:51.223Z,25.79
2023-01-13T03:04:21.244Z,25.81
2023-01-13T03:04:51.267Z,25.78
2023-01-13T03:05:21.306Z,25.79
2023-01-13T03:05:51.329Z,25.81
2023-01-13T03:06:21.351Z,25.79
2023-01-13T03:06:51.384Z,25.79
2023-01-13T03:07:21.417Z,25.79
2023-01-13T03:07:51.432Z,25.78
2023-01-13T03:08:21.493Z,25.79
2023-01-13T03:08:51.494Z,25.78
2023-01-13T03:09:21.515Z,25.81
2023-01-13T03:09:51.549Z,25.81
2023-01-13T03:10:21.586Z,25.79
2023-01-13T03:10:51.617Z,25.76
2023-01-13T03:11:21.664Z,25.79
2023-01-13T03:11:51.686Z,25.81
2023-01-13T03:12:21.710Z,25.79
2023-01-13T03:12:51.749Z,25.78
2023-01-13T03:13:21.771Z,25.78
2023-01-13T03:13:51.790Z,25.79
2023-01-13T03:14:21.821Z,25.79
2023-01-13T03:14:51.852Z,25.78
2023-01-13T03:15:21.866Z,25.79
2023-01-13T03:15:51.925Z,25.78
2023-01-13T03:16:21.975Z,25.78
2023-01-13T03:16:52.023Z,25.81
2023-01-13T03:17:22.052Z,25.79
2023-01-13T03:17:52.068Z,25.79
2023-01-13T03:18:22.097Z,25.79
2023-01-13T03:18:52.126Z,25.78
2023-01-13T03:19:22.153Z,25.78
2023-01-13T03:19:52.179Z,25.76
2023-01-13T03:20:22.215Z,25.81
2023-01-13T03:20:52.244Z,25.78
2023-01-13T03:21:22.272Z,25.79
2023-01-13T03:21:52.292Z,25.78
2023-01-13T03:22:22.373Z,25.79
2023-01-13T03:22:52.388Z,25.79
2023-01-13T03:23:22.435Z,25.76
2023-01-13T03:23:52.474Z,25.76
2023-01-13T03:24:22.473Z,25.76
2023-01-13T03:24:52.498Z,25.79
2023-01-13T03:25:22.532Z,25.78
2023-01-13T03:25:52.727Z,25.78
2023-01-13T03:26:22.625Z,25.79
2023-01-13T03:26:52.659Z,25.78
2023-01-13T03:27:22.763Z,25.76
2023-01-13T03:27:52.792Z,25.76
2023-01-13T03:28:22.824Z,25.78
2023-01-13T03:28:52.851Z,25.78
2023-01-13T03:29:22.891Z,25.81
2023-01-13T03:29:52.894Z,25.75
2023-01-13T03:30:23.022Z,25.76
2023-01-13T03:30:53.053Z,25.78
2023-01-13T03:31:23.077Z,25.76
2023-01-13T03:31:53.100Z,25.78
2023-01-13T03:32:23.148Z,25.78
2023-01-13T03:32:53.162Z,25.76
2023-01-13T03:33:23.206Z,25.76
2023-01-13T03:33:53.236Z,25.78
2023-01-13T03:34:23.269Z,25.76
2023-01-13T03:34:53.282Z,25.76
2023-01-13T03:35:23.317Z,25.76
2023-01-13T03:35:53.361Z,25.78
2023-01-13T03:36:23.372Z,25.75
2023-01-13T03:36:53.400Z,25.76
2023-01-13T03:37:23.426Z,25.76
2023-01-13T03:37:53.449Z,25.76
2023-01-13T03:38:23.477Z,25.78
2023-01-13T03:38:53.510Z,25.76
2023-01-13T03:39:23.565Z,25.78
2023-01-13T03:39:53.570Z,25.78
2023-01-13T03:40:23.614Z,25.76
2023-01-13T03:40:53.640Z,25.76
2023-01-13T03:41:23.662Z,25.75
2023-01-13T03:41:53.691Z,25.78
2023-01-13T03:42:23.735Z,25.76
2023-01-13T03:42:53.758Z,25.76
2023-01-13T03:43:23.793Z,25.76
2023-01-13T03:43:53.823Z,25.76
2023-01-13T03:44:23.870Z,25.75
2023-01-13T03:44:53.887Z,25.75
2023-01-13T03:45:23.932Z,25.78
2023-01-13T03:45:53.980Z,25.75
2023-01-13T03:46:24.091Z,25.75
2023-01-13T03:46:54.024Z,25.76
2023-01-13T03:47:24.068Z,25.78
2023-01-13T03:47:54.092Z,25.76
2023-01-13T03:48:24.113Z,25.75
2023-01-13T03:48:54.150Z,25.75
2023-01-13T03:49:24.179Z,25.76
2023-01-13T03:49:54.204Z,25.74
2023-01-13T03:50:24.237Z,25.75
2023-01-13T03:50:54.331Z,25.76
2023-01-13T03:51:24.345Z,25.76
2023-01-13T03:51:54.503Z,25.76
2023-01-13T03:52:24.584Z,25.75
2023-01-13T03:52:54.567Z,25.76
2023-01-13T03:53:24.682Z,25.75
2023-01-13T03:53:54.831Z,25.75
2023-01-13T03:54:24.907Z,25.74
2023-01-13T03:54:55.055Z,25.75
2023-01-13T03:55:25.151Z,25.74
2023-01-13T03:55:55.134Z,25.72
2023-01-13T03:56:25.260Z,25.74
2023-01-13T03:56:55.248Z,25.74
2023-01-13T03:57:25.371Z,25.75
2023-01-13T03:57:55.471Z,25.74
2023-01-13T03:58:25.460Z,25.74
2023-01-13T03:58:55.577Z,25.76
2023-01-13T03:59:25.576Z,25.74
2023-01-13T03:59:55.688Z,25.75
2023-01-13T04:00:25.687Z,25.78
2023-01-13T04:00:55.789Z,25.78
2023-01-13T04:01:25.865Z,25.75
2023-01-13T04:01:55.930Z,25.75
2023-01-13T04:02:25.729Z,25.76
2023-01-13T04:02:55.756Z,25.75
2023-01-13T04:03:25.855Z,25.75
2023-01-13T04:03:55.922Z,25.76
2023-01-13T04:04:25.939Z,25.74
2023-01-13T04:04:55.956Z,25.74
2023-01-13T04:05:25.984Z,25.78
2023-01-13T04:05:56.011Z,25.74
2023-01-13T04:06:26.040Z,25.74
2023-01-13T04:06:56.097Z,25.76
2023-01-13T04:07:26.173Z,25.74
2023-01-13T04:07:56.210Z,25.75
2023-01-13T04:08:26.242Z,25.75
2023-01-13T04:08:56.253Z,25.74
2023-01-13T04:09:26.275Z,25.74
2023-01-13T04:09:56.298Z,25.78
2023-01-13T04:10:26.355Z,25.76
2023-01-13T04:10:56.353Z,25.78
2023-01-13T04:11:26.393Z,25.78
2023-01-13T04:11:56.412Z,25.75
2023-01-13T04:12:26.430Z,25.74
2023-01-13T04:12:56.464Z,25.75
2023-01-13T04:13:26.491Z,25.75
2023-01-13T04:13:56.524Z,25.74
2023-01-13T04:14:26.546Z,25.76
2023-01-13T04:14:56.574Z,25.74
2023-01-13T04:15:26.726Z,25.75
2023-01-13T04:15:56.746Z,25.74
2023-01-13T04:16:26.659Z,25.75
2023-01-13T04:16:56.672Z,25.74
2023-01-13T04:17:26.703Z,25.75
2023-01-13T04:17:56.723Z,25.72
2023-01-13T04:18:26.819Z,25.74
2023-01-13T04:18:56.825Z,25.74
2023-01-13T04:19:26.897Z,25.74
2023-01-13T04:19:56.935Z,25.75
2023-01-13T04:20:26.947Z,25.74
2023-01-13T04:20:56.973Z,25.74
2023-01-13T04:21:27.170Z,25.74
2023-01-13T04:21:57.110Z,25.74
2023-01-13T04:22:27.138Z,25.74
2023-01-13T04:22:57.163Z,25.74
2023-01-13T04:23:27.177Z,25.72
2023-01-13T04:23:57.213Z,25.72
2023-01-13T04:24:27.241Z,25.76
2023-01-13T04:24:57.255Z,25.75
2023-01-13T04:25:27.291Z,25.72
2023-01-13T04:25:57.340Z,25.71
2023-01-13T04:26:27.348Z,25.71
2023-01-13T04:26:57.377Z,25.72
2023-01-13T04:27:27.409Z,25.74
2023-01-13T04:27:57.485Z,25.72
2023-01-13T04:28:27.505Z,25.72
2023-01-13T04:28:57.526Z,25.72
2023-01-13T04:29:27.543Z,25.74
2023-01-13T04:29:57.603Z,25.72
2023-01-13T04:30:27.643Z,25.74
2023-01-13T04:30:57.764Z,25.75
2023-01-13T04:31:27.790Z,25.75
2023-01-13T04:31:57.793Z,25.71
2023-01-13T04:32:27.818Z,25.74
2023-01-13T04:32:57.854Z,25.74
2023-01-13T04:33:27.885Z,25.72
2023-01-13T04:33:57.907Z,25.72
2023-01-13T04:34:28.545Z,25.74
2023-01-13T04:34:57.981Z,25.72
2023-01-13T04:35:27.999Z,25.74
2023-01-13T04:35:58.032Z,25.72
2023-01-13T04:36:28.056Z,25.74
2023-01-13T04:36:58.078Z,25.69
2023-01-13T04:37:28.121Z,25.74
2023-01-13T04:37:58.148Z,25.74
2023-01-13T04:38:28.181Z,25.74
2023-01-13T04:38:58.206Z,25.75
2023-01-13T04:39:28.242Z,25.75
2023-01-13T04:39:58.286Z,25.74
2023-01-13T04:40:28.315Z,25.75
2023-01-13T04:40:58.337Z,25.75
2023-01-13T04:41:28.431Z,25.76
2023-01-13T04:41:58.443Z,25.78
2023-01-13T04:42:28.456Z,25.76
2023-01-13T04:42:58.479Z,25.79
2023-01-13T04:43:28.506Z,25.78
2023-01-13T04:43:58.545Z,25.81
2023-01-13T04:44:28.563Z,25.81
2023-01-13T04:44:58.598Z,25.79
2023-01-13T04:45:28.612Z,25.82
2023-01-13T04:45:58.719Z,25.82
2023-01-13T04:46:28.827Z,25.84
2023-01-13T04:46:58.827Z,25.82
2023-01-13T04:47:28.868Z,25.84
2023-01-13T04:47:58.881Z,25.86
2023-01-13T04:48:28.922Z,25.86
2023-01-13T04:48:58.933Z,25.82
2023-01-13T04:49:28.995Z,25.84
2023-01-13T04:49:59.027Z,25.84
2023-01-13T04:50:29.052Z,25.84
2023-01-13T04:50:59.087Z,25.86
2023-01-13T04:51:29.119Z,25.85
2023-01-13T04:51:59.118Z,25.86
2023-01-13T04:52:29.111Z,25.88
2023-01-13T04:52:59.221Z,25.85
2023-01-13T04:53:29.350Z,25.88
2023-01-13T04:53:59.447Z,25.89
2023-01-13T04:54:29.594Z,25.89
2023-01-13T04:54:59.590Z,25.91
2023-01-13T04:55:29.589Z,25.88
2023-01-13T04:55:59.598Z,25.89
2023-01-13T04:56:29.738Z,25.89
2023-01-13T04:56:59.752Z,25.91
2023-01-13T04:57:29.866Z,25.91
2023-01-13T04:57:59.945Z,25.93
2023-01-13T04:58:29.943Z,25.92
2023-01-13T04:59:00.083Z,25.93
2023-01-13T04:59:30.167Z,25.92
2023-01-13T05:00:00.286Z,25.93
2023-01-13T05:00:30.287Z,25.95
2023-01-13T05:01:00.446Z,25.92
2023-01-13T05:01:30.632Z,25.96
2023-01-13T05:02:00.605Z,25.97
2023-01-13T05:02:30.557Z,25.96
2023-01-13T05:03:00.602Z,25.97
2023-01-13T05:03:30.791Z,25.96
2023-01-13T05:04:00.724Z,25.99
2023-01-13T05:04:30.762Z,25.97
2023-01-13T05:05:00.784Z,25.99
2023-01-13T05:05:30.817Z,25.99
2023-01-13T05:06:00.824Z,26.00
2023-01-13T05:06:30.893Z,26.00
2023-01-13T05:07:00.913Z,26.00
2023-01-13T05:07:30.939Z,26.00
2023-01-13T05:08:00.972Z,26.02
2023-01-13T05:08:30.993Z,26.02
2023-01-13T05:09:01.014Z,26.02
2023-01-13T05:09:31.046Z,26.03
2023-01-13T05:10:01.075Z,26.03
2023-01-13T05:10:31.103Z,26.00
2023-01-13T05:11:01.127Z,26.03
2023-01-13T05:11:31.147Z,26.02
2023-01-13T05:12:01.191Z,26.02
2023-01-13T05:12:31.235Z,26.03
2023-01-13T05:13:01.231Z,26.03
2023-01-13T05:13:31.262Z,26.02
2023-01-13T05:14:01.284Z,26.05
2023-01-13T05:14:31.323Z,26.03
2023-01-13T05:15:01.346Z,26.05
2023-01-13T05:15:31.358Z,26.02
2023-01-13T05:16:01.495Z,26.00
2023-01-13T05:16:31.476Z,26.02
2023-01-13T05:17:01.508Z,26.02
2023-01-13T05:17:31.546Z,26.06
2023-01-13T05:18:01.560Z,26.03
2023-01-13T05:18:31.607Z,26.03
2023-01-13T05:19:01.617Z,26.03
2023-01-13T05:19:31.670Z,26.05
2023-01-13T05:20:01.727Z,26.03
2023-01-13T05:20:31.728Z,26.05
2023-01-13T05:21:01.743Z,26.06
2023-01-13T05:21:31.773Z,26.00
2023-01-13T05:22:01.806Z,26.00
2023-01-13T05:22:31.839Z,25.99
2023-01-13T05:23:01.871Z,25.92
2023-01-13T05:23:31.893Z,25.93
2023-01-13T05:24:01.936Z,25.95
2023-01-13T05:24:31.947Z,25.96
2023-01-13T05:25:01.971Z,25.96
2023-01-13T05:25:32.000Z,25.96
2023-01-13T05:26:02.022Z,25.97
2023-01-13T05:26:32.074Z,25.97
2023-01-13T05:27:02.097Z,25.97
2023-01-13T05:27:32.122Z,26.00
2023-01-13T05:28:02.168Z,26.03
2023-01-13T05:28:32.162Z,26.02
2023-01-13T05:29:02.222Z,26.03
2023-01-13T05:29:32.216Z,26.06
2023-01-13T05:30:02.304Z,26.06
2023-01-13T05:30:32.324Z,26.09
2023-01-13T05:31:02.386Z,26.10
2023-01-13T05:31:32.443Z,26.09
2023-01-13T05:32:02.470Z,26.09
2023-01-13T05:32:32.490Z,26.10
2023-01-13T05:33:02.513Z,26.12
2023-01-13T05:33:34.899Z,26.16
2023-01-13T05:34:02.534Z,26.12
2023-01-13T05:34:32.553Z,26.10
2023-01-13T05:35:02.595Z,26.15
2023-01-13T05:35:32.603Z,26.13
2023-01-13T05:36:02.655Z,26.16
2023-01-13T05:36:32.669Z,26.16
2023-01-13T05:37:02.701Z,26.16
2023-01-13T05:37:32.757Z,26.19
2023-01-13T05:38:02.780Z,26.20
2023-01-13T05:38:32.809Z,26.22
2023-01-13T05:39:02.836Z,26.20
2023-01-13T05:39:32.859Z,26.24
2023-01-13T05:40:02.905Z,26.26
2023-01-13T05:40:32.931Z,26.30
2023-01-13T05:41:02.955Z,26.30
2023-01-13T05:41:32.976Z,26.30
2023-01-13T05:42:03.008Z,26.33
2023-01-13T05:42:33.048Z,26.37
2023-01-13T05:43:03.095Z,26.37
2023-01-13T05:43:33.116Z,26.42
2023-01-13T05:44:03.111Z,26.42
2023-01-13T05:44:33.147Z,26.42
2023-01-13T05:45:03.178Z,26.44
2023-01-13T05:45:33.202Z,26.34
2023-01-13T05:46:03.403Z,26.39
2023-01-13T05:46:33.442Z,26.43
2023-01-13T05:47:03.350Z,26.44
2023-01-13T05:47:33.370Z,26.44
2023-01-13T05:48:03.391Z,26.47
2023-01-13T05:48:33.426Z,26.50
2023-01-13T05:49:03.449Z,26.50
2023-01-13T05:49:33.476Z,26.48
2023-01-13T05:50:03.513Z,26.51
2023-01-13T05:50:33.608Z,26.54
2023-01-13T05:51:03.650Z,26.55
2023-01-13T05:51:33.798Z,26.55
2023-01-13T05:52:03.764Z,26.51
2023-01-13T05:52:33.804Z,26.53
2023-01-13T05:53:03.785Z,26.60
2023-01-13T05:53:33.911Z,26.58
2023-01-13T05:54:04.022Z,26.60
2023-01-13T05:54:34.135Z,26.60
2023-01-13T05:55:04.252Z,26.61
2023-01-13T05:55:34.352Z,26.64
2023-01-13T05:56:04.481Z,26.63
2023-01-13T05:56:34.583Z,26.65
2023-01-13T05:57:04.694Z,26.65
2023-01-13T05:57:34.829Z,26.67
2023-01-13T05:58:04.936Z,26.68
2023-01-13T05:58:34.920Z,26.68
2023-01-13T05:59:05.064Z,26.70
2023-01-13T05:59:35.146Z,26.74
2023-01-13T06:00:05.205Z,26.73
2023-01-13T06:00:35.321Z,26.71
2023-01-13T06:01:05.532Z,26.74
2023-01-13T06:01:35.672Z,26.73
2023-01-13T06:02:05.629Z,26.74
2023-01-13T06:02:35.744Z,26.77
2023-01-13T06:03:05.797Z,26.74
2023-01-13T06:03:35.832Z,26.80
2023-01-13T06:04:06.025Z,26.80
2023-01-13T06:04:36.011Z,26.81
2023-01-13T06:05:05.985Z,26.82
2023-01-13T06:05:36.030Z,26.82
2023-01-13T06:06:06.041Z,26.81
2023-01-13T06:06:36.080Z,26.82
2023-01-13T06:07:06.112Z,26.84
2023-01-13T06:07:36.172Z,26.82
2023-01-13T06:08:06.249Z,26.85
2023-01-13T06:08:39.277Z,26.87
2023-01-13T06:09:06.363Z,26.87
2023-01-13T06:09:36.398Z,26.87
2023-01-13T06:10:06.414Z,26.88
2023-01-13T06:10:36.446Z,26.87
2023-01-13T06:11:06.472Z,26.90
2023-01-13T06:11:36.495Z,26.91
2023-01-13T06:12:06.636Z,26.91
2023-01-13T06:12:36.663Z,26.91
2023-01-13T06:13:06.698Z,26.90
2023-01-13T06:13:36.715Z,26.90
2023-01-13T06:14:06.744Z,26.91
2023-01-13T06:14:37.248Z,26.92
2023-01-13T06:15:06.886Z,26.92
2023-01-13T06:15:36.926Z,26.92
2023-01-13T06:16:06.992Z,26.94
2023-01-13T06:16:37.063Z,26.92
2023-01-13T06:17:07.130Z,26.95
2023-01-13T06:17:37.161Z,26.95
2023-01-13T06:18:07.228Z,26.95
2023-01-13T06:18:37.258Z,26.97
2023-01-13T06:19:07.342Z,26.97
2023-01-13T06:19:37.408Z,26.97
2023-01-13T06:20:07.436Z,26.97
2023-01-13T06:20:37.462Z,26.98
2023-01-13T06:21:07.491Z,26.95
2023-01-13T06:21:37.520Z,26.98
2023-01-13T06:22:07.592Z,26.98
2023-01-13T06:22:37.600Z,26.99
2023-01-13T06:23:07.633Z,26.98
2023-01-13T06:23:37.655Z,26.99
2023-01-13T06:24:07.681Z,27.01
2023-01-13T06:24:37.719Z,26.99
2023-01-13T06:25:07.753Z,27.01
2023-01-13T06:25:37.769Z,27.01
2023-01-13T06:26:07.793Z,27.02
2023-01-13T06:26:37.818Z,26.99
2023-01-13T06:27:07.865Z,26.98